Hovedside
METAR-TAF:

METAR-TAF

Lufthavner :

Oljeplattform

Norne Fpso, Norge

breddegrad: 66-01-48N, lengdegrad: 008-04-48E, høyde over havet: 10 m

Gjeldene værobservasjon

Denne rapporten ble laget for 13 minutter siden, klokken 16:50 UTC
Vind 13 kt fra Øst-sørøst
Temperatur 9°C
Luftfuktighet 81%
Trykk 1012 hPa
Sikt 10 km eller mer
ingen skyer under 1500 m og ingen bygeskyer

METAR: ENNE 261650Z 12013KT CAVOK 09/06 Q1012 W///S3

Tid: 19:03 (17:03 UTC)

Varsel

Denne rapporten ble laget for 6 timer og 3 minutter siden, klokken 11:00 UTC
Varsel gyldig fra 26. klokken 12 UTC til 26. klokken 17 UTC
Vind 18 kt fra Øst-sørøst
Sikt 10 km eller mer
ingen skyer under 1500 m og ingen bygeskyer

TAF: ENNE 261100Z 2612/2617 12018KT CAVOK

Værobservasjoner og værvarsel for over 4000 flyplasser (METAR- og TAF-rapporter).

Tilgjengelige stasjoner er representert av de røde og gule prikkene på kartet.

Hold musepekeren over prikken for å se navnet på stasjonen.

Klikk så for å se værobservasjoner og -varsler.

For å forandre kartet kan du klikke på den grønne knappen med svart kryss for å zoome inn, på den grønne knappen med strek for å zoome ut, eller på de grønne pilene for å se tilstøtende kart.


METAR-TAF: